sensor_id;sensor_type;location;lat;lon;timestamp;pressure;altitude;pressure_sealevel;temperature;humidity
64402;BME280;50724;42.376;23.768;2023-04-24T00:00:22;93009.13;;;6.92;89.81
64402;BME280;50724;42.376;23.768;2023-04-24T00:03:23;93008.56;;;7.16;88.34
64402;BME280;50724;42.376;23.768;2023-04-24T00:06:24;93003.50;;;7.32;87.86
64402;BME280;50724;42.376;23.768;2023-04-24T00:09:24;93000.78;;;7.33;88.22
64402;BME280;50724;42.376;23.768;2023-04-24T00:12:25;92997.19;;;7.34;87.83
64402;BME280;50724;42.376;23.768;2023-04-24T00:15:26;92992.16;;;7.33;88.86
64402;BME280;50724;42.376;23.768;2023-04-24T00:18:26;92990.78;;;7.64;83.02
64402;BME280;50724;42.376;23.768;2023-04-24T00:21:27;92994.47;;;7.79;84.07
64402;BME280;50724;42.376;23.768;2023-04-24T00:24:27;92976.31;;;7.87;80.31
64402;BME280;50724;42.376;23.768;2023-04-24T00:27:27;92979.19;;;8.10;78.81
64402;BME280;50724;42.376;23.768;2023-04-24T00:30:28;92997.97;;;8.13;80.20
64402;BME280;50724;42.376;23.768;2023-04-24T00:33:28;92995.34;;;8.13;81.75
64402;BME280;50724;42.376;23.768;2023-04-24T00:36:29;92988.44;;;8.04;81.73
64402;BME280;50724;42.376;23.768;2023-04-24T00:39:30;92986.34;;;8.08;82.60
64402;BME280;50724;42.376;23.768;2023-04-24T00:42:31;92981.16;;;8.08;84.79
64402;BME280;50724;42.376;23.768;2023-04-24T00:45:32;92976.50;;;7.68;84.79
64402;BME280;50724;42.376;23.768;2023-04-24T00:48:32;92987.38;;;7.89;86.03
64402;BME280;50724;42.376;23.768;2023-04-24T00:51:33;92994.22;;;7.90;85.32
64402;BME280;50724;42.376;23.768;2023-04-24T00:54:35;92983.53;;;7.50;86.88
64402;BME280;50724;42.376;23.768;2023-04-24T00:57:37;92978.00;;;7.53;87.43
64402;BME280;50724;42.376;23.768;2023-04-24T01:00:38;92970.97;;;7.45;87.24
64402;BME280;50724;42.376;23.768;2023-04-24T01:03:39;92970.59;;;7.23;87.78
64402;BME280;50724;42.376;23.768;2023-04-24T01:06:42;92968.09;;;6.96;89.08
64402;BME280;50724;42.376;23.768;2023-04-24T01:09:45;92959.22;;;7.06;86.81
64402;BME280;50724;42.376;23.768;2023-04-24T01:12:49;92952.53;;;7.04;87.61
64402;BME280;50724;42.376;23.768;2023-04-24T01:15:50;92951.88;;;6.84;87.42
64402;BME280;50724;42.376;23.768;2023-04-24T01:18:50;92952.53;;;7.04;86.47
64402;BME280;50724;42.376;23.768;2023-04-24T01:21:53;92952.84;;;6.83;88.09
64402;BME280;50724;42.376;23.768;2023-04-24T01:24:54;92953.34;;;6.69;89.48
64402;BME280;50724;42.376;23.768;2023-04-24T01:27:55;92958.19;;;6.37;90.42
64402;BME280;50724;42.376;23.768;2023-04-24T01:30:56;92956.50;;;6.45;90.43
64402;BME280;50724;42.376;23.768;2023-04-24T01:33:56;92952.78;;;6.48;90.33
64402;BME280;50724;42.376;23.768;2023-04-24T01:36:57;92942.50;;;6.73;89.57
64402;BME280;50724;42.376;23.768;2023-04-24T01:39:57;92941.91;;;6.62;89.35
64402;BME280;50724;42.376;23.768;2023-04-24T01:42:58;92941.78;;;6.36;90.37
64402;BME280;50724;42.376;23.768;2023-04-24T01:45:59;92939.34;;;6.35;91.09
64402;BME280;50724;42.376;23.768;2023-04-24T01:49:00;92937.41;;;6.37;90.82
64402;BME280;50724;42.376;23.768;2023-04-24T01:52:00;92938.41;;;6.26;92.29
64402;BME280;50724;42.376;23.768;2023-04-24T01:55:01;92937.66;;;6.16;93.09
64402;BME280;50724;42.376;23.768;2023-04-24T01:58:02;92930.16;;;6.13;93.29
64402;BME280;50724;42.376;23.768;2023-04-24T02:01:03;92926.81;;;5.93;94.22
64402;BME280;50724;42.376;23.768;2023-04-24T02:04:05;92923.94;;;5.96;94.82
64402;BME280;50724;42.376;23.768;2023-04-24T02:07:06;92921.09;;;6.17;94.33
64402;BME280;50724;42.376;23.768;2023-04-24T02:10:06;92923.75;;;6.35;92.07
64402;BME280;50724;42.376;23.768;2023-04-24T02:13:07;92922.88;;;6.44;91.88
64402;BME280;50724;42.376;23.768;2023-04-24T02:16:07;92915.53;;;6.57;91.32
64402;BME280;50724;42.376;23.768;2023-04-24T02:19:08;92911.94;;;6.67;91.40
64402;BME280;50724;42.376;23.768;2023-04-24T02:22:08;92915.78;;;6.63;91.98
64402;BME280;50724;42.376;23.768;2023-04-24T02:25:08;92918.75;;;6.51;93.02
64402;BME280;50724;42.376;23.768;2023-04-24T02:28:09;92914.66;;;6.48;92.61
64402;BME280;50724;42.376;23.768;2023-04-24T02:31:09;92928.28;;;6.33;93.72
64402;BME280;50724;42.376;23.768;2023-04-24T02:34:10;92924.75;;;5.97;95.12
64402;BME280;50724;42.376;23.768;2023-04-24T02:37:10;92928.97;;;5.98;94.93
64402;BME280;50724;42.376;23.768;2023-04-24T02:40:11;92920.50;;;6.33;92.08
64402;BME280;50724;42.376;23.768;2023-04-24T02:43:11;92920.94;;;6.28;91.55
64402;BME280;50724;42.376;23.768;2023-04-24T02:46:12;92914.88;;;6.37;90.60
64402;BME280;50724;42.376;23.768;2023-04-24T02:49:12;92921.94;;;6.17;91.28
64402;BME280;50724;42.376;23.768;2023-04-24T02:52:23;92909.44;;;6.48;90.02
64402;BME280;50724;42.376;23.768;2023-04-24T02:55:23;92901.72;;;6.39;90.52
64402;BME280;50724;42.376;23.768;2023-04-24T02:58:24;92896.63;;;6.19;91.99
64402;BME280;50724;42.376;23.768;2023-04-24T03:01:25;92879.38;;;6.46;91.19
64402;BME280;50724;42.376;23.768;2023-04-24T03:04:25;92871.94;;;6.33;91.34
64402;BME280;50724;42.376;23.768;2023-04-24T03:07:26;92885.25;;;6.03;94.06
64402;BME280;50724;42.376;23.768;2023-04-24T03:10:34;92891.75;;;5.80;94.68
64402;BME280;50724;42.376;23.768;2023-04-24T03:13:35;92896.16;;;6.06;93.50
64402;BME280;50724;42.376;23.768;2023-04-24T03:16:35;92885.56;;;6.17;92.33
64402;BME280;50724;42.376;23.768;2023-04-24T03:19:36;92887.53;;;6.33;91.37
64402;BME280;50724;42.376;23.768;2023-04-24T03:22:36;92875.78;;;6.56;89.81
64402;BME280;50724;42.376;23.768;2023-04-24T03:25:37;92873.53;;;6.61;89.58
64402;BME280;50724;42.376;23.768;2023-04-24T03:28:37;92878.59;;;6.63;89.73
64402;BME280;50724;42.376;23.768;2023-04-24T03:31:37;92868.25;;;6.88;87.34
64402;BME280;50724;42.376;23.768;2023-04-24T03:34:38;92866.25;;;6.82;87.22
64402;BME280;50724;42.376;23.768;2023-04-24T03:37:38;92869.53;;;6.67;88.70
64402;BME280;50724;42.376;23.768;2023-04-24T03:40:39;92867.97;;;6.56;89.38
64402;BME280;50724;42.376;23.768;2023-04-24T03:43:48;92857.66;;;6.64;89.19
64402;BME280;50724;42.376;23.768;2023-04-24T03:46:48;92864.78;;;6.62;89.80
64402;BME280;50724;42.376;23.768;2023-04-24T03:49:49;92864.88;;;6.70;89.83
64402;BME280;50724;42.376;23.768;2023-04-24T03:52:50;92860.69;;;6.77;88.54
64402;BME280;50724;42.376;23.768;2023-04-24T03:55:50;92862.44;;;6.94;88.30
64402;BME280;50724;42.376;23.768;2023-04-24T03:58:51;92864.88;;;7.14;88.44
64402;BME280;50724;42.376;23.768;2023-04-24T04:01:51;92869.34;;;7.47;86.68
64402;BME280;50724;42.376;23.768;2023-04-24T04:04:51;92866.25;;;7.26;87.77
64402;BME280;50724;42.376;23.768;2023-04-24T04:07:52;92871.03;;;7.13;88.36
64402;BME280;50724;42.376;23.768;2023-04-24T04:10:52;92866.31;;;6.90;89.68
64402;BME280;50724;42.376;23.768;2023-04-24T04:13:53;92874.69;;;7.02;88.96
64402;BME280;50724;42.376;23.768;2023-04-24T04:16:53;92875.47;;;7.20;88.14
64402;BME280;50724;42.376;23.768;2023-04-24T04:19:53;92875.22;;;7.06;87.72
64402;BME280;50724;42.376;23.768;2023-04-24T04:22:54;92886.66;;;6.95;88.53
64402;BME280;50724;42.376;23.768;2023-04-24T04:25:54;92887.34;;;7.40;87.45
64402;BME280;50724;42.376;23.768;2023-04-24T04:28:55;92885.38;;;7.17;88.09
64402;BME280;50724;42.376;23.768;2023-04-24T04:31:55;92885.59;;;7.23;87.89
64402;BME280;50724;42.376;23.768;2023-04-24T04:34:56;92886.63;;;7.13;88.58
64402;BME280;50724;42.376;23.768;2023-04-24T04:37:56;92882.25;;;7.31;88.80
64402;BME280;50724;42.376;23.768;2023-04-24T04:40:58;92892.91;;;7.45;87.24
64402;BME280;50724;42.376;23.768;2023-04-24T04:43:59;92894.25;;;7.32;87.57
64402;BME280;50724;42.376;23.768;2023-04-24T04:46:59;92897.22;;;7.88;85.77
64402;BME280;50724;42.376;23.768;2023-04-24T04:50:00;92901.34;;;9.55;78.88
64402;BME280;50724;42.376;23.768;2023-04-24T04:53:01;92912.28;;;12.33;68.61
64402;BME280;50724;42.376;23.768;2023-04-24T04:56:01;92907.72;;;13.85;60.82
64402;BME280;50724;42.376;23.768;2023-04-24T04:59:02;92902.97;;;14.57;56.43
64402;BME280;50724;42.376;23.768;2023-04-24T05:02:03;92903.94;;;14.90;55.14
64402;BME280;50724;42.376;23.768;2023-04-24T05:05:04;92908.41;;;14.96;53.12
64402;BME280;50724;42.376;23.768;2023-04-24T05:08:04;92912.53;;;14.65;53.69
64402;BME280;50724;42.376;23.768;2023-04-24T05:11:04;92916.19;;;14.70;53.78
64402;BME280;50724;42.376;23.768;2023-04-24T05:14:06;92922.22;;;15.78;50.92
64402;BME280;50724;42.376;23.768;2023-04-24T05:17:06;92928.13;;;16.00;49.99
64402;BME280;50724;42.376;23.768;2023-04-24T05:20:07;92921.56;;;15.57;51.83
64402;BME280;50724;42.376;23.768;2023-04-24T05:23:08;92916.97;;;15.11;53.01
64402;BME280;50724;42.376;23.768;2023-04-24T05:26:08;92919.59;;;13.18;57.75
64402;BME280;50724;42.376;23.768;2023-04-24T05:29:09;92922.25;;;13.03;59.59
64402;BME280;50724;42.376;23.768;2023-04-24T05:32:09;92919.16;;;12.99;59.88
64402;BME280;50724;42.376;23.768;2023-04-24T05:35:10;92922.22;;;13.18;60.65
64402;BME280;50724;42.376;23.768;2023-04-24T05:38:10;92916.56;;;13.56;59.88
64402;BME280;50724;42.376;23.768;2023-04-24T05:41:10;92931.31;;;13.78;58.24
64402;BME280;50724;42.376;23.768;2023-04-24T05:44:11;92927.31;;;13.40;58.41
64402;BME280;50724;42.376;23.768;2023-04-24T05:47:11;92923.44;;;13.15;60.23
64402;BME280;50724;42.376;23.768;2023-04-24T05:50:13;92926.09;;;12.86;62.14
64402;BME280;50724;42.376;23.768;2023-04-24T05:53:15;92932.50;;;12.98;62.41
64402;BME280;50724;42.376;23.768;2023-04-24T05:56:15;92934.16;;;12.55;63.90
64402;BME280;50724;42.376;23.768;2023-04-24T05:59:16;92941.31;;;12.32;63.98
64402;BME280;50724;42.376;23.768;2023-04-24T06:02:16;92935.44;;;12.15;64.58
64402;BME280;50724;42.376;23.768;2023-04-24T06:05:17;92927.91;;;11.60;66.95
64402;BME280;50724;42.376;23.768;2023-04-24T06:08:18;92931.97;;;12.15;66.73
64402;BME280;50724;42.376;23.768;2023-04-24T06:11:18;92938.78;;;12.53;64.27
64402;BME280;50724;42.376;23.768;2023-04-24T06:14:19;92948.66;;;12.51;65.31
64402;BME280;50724;42.376;23.768;2023-04-24T06:17:20;92943.56;;;12.64;63.71
64402;BME280;50724;42.376;23.768;2023-04-24T06:20:20;92942.47;;;12.73;63.56
64402;BME280;50724;42.376;23.768;2023-04-24T06:23:21;92941.91;;;12.78;61.35
64402;BME280;50724;42.376;23.768;2023-04-24T06:26:21;92931.03;;;12.95;61.54
64402;BME280;50724;42.376;23.768;2023-04-24T06:29:22;92921.25;;;13.04;60.87
64402;BME280;50724;42.376;23.768;2023-04-24T06:32:24;92925.25;;;13.36;60.51
64402;BME280;50724;42.376;23.768;2023-04-24T06:35:24;92925.56;;;13.47;60.16
64402;BME280;50724;42.376;23.768;2023-04-24T06:38:25;92918.06;;;13.44;60.86
64402;BME280;50724;42.376;23.768;2023-04-24T06:41:26;92914.28;;;13.74;59.24
64402;BME280;50724;42.376;23.768;2023-04-24T06:44:27;92914.00;;;13.91;58.66
64402;BME280;50724;42.376;23.768;2023-04-24T06:47:28;92920.13;;;13.70;59.11
64402;BME280;50724;42.376;23.768;2023-04-24T06:50:28;92917.69;;;13.68;58.16
64402;BME280;50724;42.376;23.768;2023-04-24T06:53:28;92923.69;;;14.11;57.64
64402;BME280;50724;42.376;23.768;2023-04-24T06:56:29;92916.94;;;14.58;55.75
64402;BME280;50724;42.376;23.768;2023-04-24T06:59:38;92918.91;;;14.49;55.34
64402;BME280;50724;42.376;23.768;2023-04-24T07:02:39;92907.97;;;14.45;56.26
64402;BME280;50724;42.376;23.768;2023-04-24T07:05:39;92917.16;;;14.63;56.27
64402;BME280;50724;42.376;23.768;2023-04-24T07:08:40;92923.63;;;14.60;55.71
64402;BME280;50724;42.376;23.768;2023-04-24T07:11:42;92915.41;;;14.76;55.03
64402;BME280;50724;42.376;23.768;2023-04-24T07:14:42;92917.19;;;14.69;55.66
64402;BME280;50724;42.376;23.768;2023-04-24T07:17:43;92912.22;;;14.87;56.71
64402;BME280;50724;42.376;23.768;2023-04-24T07:20:44;92909.31;;;14.76;56.86
64402;BME280;50724;42.376;23.768;2023-04-24T07:23:45;92912.31;;;14.66;56.13
64402;BME280;50724;42.376;23.768;2023-04-24T07:26:45;92910.00;;;14.50;56.29
64402;BME280;50724;42.376;23.768;2023-04-24T07:29:46;92914.31;;;14.02;56.57
64402;BME280;50724;42.376;23.768;2023-04-24T07:32:47;92906.28;;;14.72;55.27
64402;BME280;50724;42.376;23.768;2023-04-24T07:35:47;92908.84;;;15.06;54.49
64402;BME280;50724;42.376;23.768;2023-04-24T07:38:48;92896.13;;;15.23;56.18
64402;BME280;50724;42.376;23.768;2023-04-24T07:41:58;92909.84;;;15.66;53.51
64402;BME280;50724;42.376;23.768;2023-04-24T07:44:59;92895.69;;;15.20;53.91
64402;BME280;50724;42.376;23.768;2023-04-24T07:47:59;92898.88;;;15.69;55.11
64402;BME280;50724;42.376;23.768;2023-04-24T07:51:00;92893.63;;;15.82;52.98
64402;BME280;50724;42.376;23.768;2023-04-24T07:54:00;92892.38;;;16.04;53.09
64402;BME280;50724;42.376;23.768;2023-04-24T07:57:01;92892.41;;;15.91;52.75
64402;BME280;50724;42.376;23.768;2023-04-24T08:00:03;92893.38;;;16.23;53.57
64402;BME280;50724;42.376;23.768;2023-04-24T08:03:04;92888.88;;;16.49;51.30
64402;BME280;50724;42.376;23.768;2023-04-24T08:06:05;92888.31;;;16.41;52.31
64402;BME280;50724;42.376;23.768;2023-04-24T08:09:05;92883.63;;;16.43;51.40
64402;BME280;50724;42.376;23.768;2023-04-24T08:12:06;92881.72;;;16.83;49.16
64402;BME280;50724;42.376;23.768;2023-04-24T08:15:07;92884.97;;;16.85;51.44
64402;BME280;50724;42.376;23.768;2023-04-24T08:18:08;92886.56;;;16.86;50.60
64402;BME280;50724;42.376;23.768;2023-04-24T08:21:09;92877.44;;;17.26;51.09
64402;BME280;50724;42.376;23.768;2023-04-24T08:24:09;92872.56;;;17.67;47.64
64402;BME280;50724;42.376;23.768;2023-04-24T08:27:10;92872.16;;;17.64;47.93
64402;BME280;50724;42.376;23.768;2023-04-24T08:30:10;92875.84;;;17.63;47.88
64402;BME280;50724;42.376;23.768;2023-04-24T08:33:11;92874.56;;;17.72;48.84
64402;BME280;50724;42.376;23.768;2023-04-24T08:36:11;92859.06;;;17.75;47.09
64402;BME280;50724;42.376;23.768;2023-04-24T08:39:12;92856.28;;;17.64;47.70
64402;BME280;50724;42.376;23.768;2023-04-24T08:42:13;92856.97;;;18.09;46.99
64402;BME280;50724;42.376;23.768;2023-04-24T08:45:15;92856.03;;;17.97;48.01
64402;BME280;50724;42.376;23.768;2023-04-24T08:48:16;92858.47;;;17.73;48.07
64402;BME280;50724;42.376;23.768;2023-04-24T08:51:17;92853.91;;;17.49;49.51
64402;BME280;50724;42.376;23.768;2023-04-24T08:54:18;92846.41;;;18.27;46.71
64402;BME280;50724;42.376;23.768;2023-04-24T08:57:19;92839.28;;;18.52;46.17
64402;BME280;50724;42.376;23.768;2023-04-24T09:00:22;92830.13;;;18.48;45.40
64402;BME280;50724;42.376;23.768;2023-04-24T09:03:22;92827.72;;;18.46;46.58
64402;BME280;50724;42.376;23.768;2023-04-24T09:06:24;92824.97;;;18.71;46.26
64402;BME280;50724;42.376;23.768;2023-04-24T09:09:25;92828.28;;;19.03;46.29
64402;BME280;50724;42.376;23.768;2023-04-24T09:12:27;92827.94;;;18.63;44.65
64402;BME280;50724;42.376;23.768;2023-04-24T09:15:28;92820.94;;;18.69;47.46
64402;BME280;50724;42.376;23.768;2023-04-24T09:18:29;92831.31;;;18.88;45.69
64402;BME280;50724;42.376;23.768;2023-04-24T09:21:34;92825.47;;;18.43;45.33
64402;BME280;50724;42.376;23.768;2023-04-24T09:24:35;92816.19;;;18.34;46.79
64402;BME280;50724;42.376;23.768;2023-04-24T09:27:35;92816.22;;;18.52;45.95
64402;BME280;50724;42.376;23.768;2023-04-24T09:30:36;92807.91;;;18.49;46.53
64402;BME280;50724;42.376;23.768;2023-04-24T09:33:37;92805.16;;;18.37;46.45
64402;BME280;50724;42.376;23.768;2023-04-24T09:36:39;92801.94;;;18.72;48.14
64402;BME280;50724;42.376;23.768;2023-04-24T09:39:40;92809.72;;;19.33;45.24
64402;BME280;50724;42.376;23.768;2023-04-24T09:42:59;92798.34;;;19.97;44.53
64402;BME280;50724;42.376;23.768;2023-04-24T09:46:07;92798.34;;;20.08;43.45
64402;BME280;50724;42.376;23.768;2023-04-24T09:49:25;92791.47;;;20.42;43.71
64402;BME280;50724;42.376;23.768;2023-04-24T09:52:26;92790.38;;;19.97;42.81
64402;BME280;50724;42.376;23.768;2023-04-24T09:55:27;92792.31;;;19.78;43.80
64402;BME280;50724;42.376;23.768;2023-04-24T09:58:29;92795.28;;;20.23;42.72
64402;BME280;50724;42.376;23.768;2023-04-24T10:01:30;92795.59;;;20.38;42.92
64402;BME280;50724;42.376;23.768;2023-04-24T10:04:32;92792.03;;;20.44;42.69
64402;BME280;50724;42.376;23.768;2023-04-24T10:07:32;92784.66;;;20.23;43.74
64402;BME280;50724;42.376;23.768;2023-04-24T10:10:35;92770.34;;;20.75;42.73
64402;BME280;50724;42.376;23.768;2023-04-24T10:13:37;92773.84;;;20.64;42.39
64402;BME280;50724;42.376;23.768;2023-04-24T10:16:39;92776.66;;;20.97;42.60
64402;BME280;50724;42.376;23.768;2023-04-24T10:19:40;92767.97;;;21.30;41.64
64402;BME280;50724;42.376;23.768;2023-04-24T10:22:42;92757.63;;;20.77;40.50
64402;BME280;50724;42.376;23.768;2023-04-24T10:25:43;92759.44;;;20.88;42.39
64402;BME280;50724;42.376;23.768;2023-04-24T10:28:47;92754.06;;;21.11;41.85
64402;BME280;50724;42.376;23.768;2023-04-24T10:31:48;92762.09;;;21.28;41.68
64402;BME280;50724;42.376;23.768;2023-04-24T10:34:48;92758.06;;;20.86;41.40
64402;BME280;50724;42.376;23.768;2023-04-24T10:37:54;92765.66;;;20.54;42.32
64402;BME280;50724;42.376;23.768;2023-04-24T10:41:14;92759.25;;;20.78;42.02
64402;BME280;50724;42.376;23.768;2023-04-24T10:44:22;92762.53;;;20.57;41.18
64402;BME280;50724;42.376;23.768;2023-04-24T10:47:22;92749.28;;;20.34;43.43
64402;BME280;50724;42.376;23.768;2023-04-24T10:50:23;92753.44;;;20.41;44.29
64402;BME280;50724;42.376;23.768;2023-04-24T10:53:27;92754.59;;;19.99;46.16
64402;BME280;50724;42.376;23.768;2023-04-24T10:56:27;92751.03;;;20.28;45.63
64402;BME280;50724;42.376;23.768;2023-04-24T10:59:34;92748.06;;;20.65;43.19
64402;BME280;50724;42.376;23.768;2023-04-24T11:02:37;92754.97;;;20.77;42.77
64402;BME280;50724;42.376;23.768;2023-04-24T11:05:51;92746.84;;;20.09;45.43
64402;BME280;50724;42.376;23.768;2023-04-24T11:08:51;92740.72;;;19.62;45.59
64402;BME280;50724;42.376;23.768;2023-04-24T11:12:08;92726.97;;;20.12;48.40
64402;BME280;50724;42.376;23.768;2023-04-24T11:15:10;92727.13;;;20.68;45.14
64402;BME280;50724;42.376;23.768;2023-04-24T11:18:15;92722.72;;;20.11;44.77
64402;BME280;50724;42.376;23.768;2023-04-24T11:21:19;92718.00;;;20.76;44.69
64402;BME280;50724;42.376;23.768;2023-04-24T11:27:30;92719.81;;;20.47;45.70
64402;BME280;50724;42.376;23.768;2023-04-24T11:30:32;92715.78;;;20.21;44.15
64402;BME280;50724;42.376;23.768;2023-04-24T11:33:33;92717.63;;;20.09;46.42
64402;BME280;50724;42.376;23.768;2023-04-24T11:36:35;92723.44;;;19.95;45.80
64402;BME280;50724;42.376;23.768;2023-04-24T11:39:36;92721.25;;;19.92;45.91
64402;BME280;50724;42.376;23.768;2023-04-24T11:42:39;92717.16;;;20.47;43.79
64402;BME280;50724;42.376;23.768;2023-04-24T11:45:48;92713.81;;;20.17;44.85
64402;BME280;50724;42.376;23.768;2023-04-24T11:48:48;92710.94;;;20.18;44.88
64402;BME280;50724;42.376;23.768;2023-04-24T11:51:49;92700.16;;;20.48;44.86
64402;BME280;50724;42.376;23.768;2023-04-24T11:54:50;92701.28;;;19.89;44.70
64402;BME280;50724;42.376;23.768;2023-04-24T11:57:53;92689.75;;;19.95;44.47
64402;BME280;50724;42.376;23.768;2023-04-24T12:00:57;92687.75;;;19.56;44.49
64402;BME280;50724;42.376;23.768;2023-04-24T12:04:01;92697.56;;;19.44;45.80
64402;BME280;50724;42.376;23.768;2023-04-24T12:07:05;92686.84;;;19.97;44.95
64402;BME280;50724;42.376;23.768;2023-04-24T12:10:05;92705.75;;;20.00;44.08
64402;BME280;50724;42.376;23.768;2023-04-24T12:13:09;92692.13;;;20.20;43.97
64402;BME280;50724;42.376;23.768;2023-04-24T12:16:10;92692.81;;;20.38;43.61
64402;BME280;50724;42.376;23.768;2023-04-24T12:19:10;92687.63;;;20.20;43.41
64402;BME280;50724;42.376;23.768;2023-04-24T12:22:19;92678.00;;;20.42;42.33
64402;BME280;50724;42.376;23.768;2023-04-24T12:25:22;92675.63;;;20.18;43.13
64402;BME280;50724;42.376;23.768;2023-04-24T12:28:23;92671.91;;;20.30;44.39
64402;BME280;50724;42.376;23.768;2023-04-24T12:31:23;92670.94;;;19.85;43.78
64402;BME280;50724;42.376;23.768;2023-04-24T12:34:25;92664.00;;;19.72;44.46
64402;BME280;50724;42.376;23.768;2023-04-24T12:37:31;92661.59;;;19.71;45.01
64402;BME280;50724;42.376;23.768;2023-04-24T12:40:32;92675.13;;;19.16;45.88
64402;BME280;50724;42.376;23.768;2023-04-24T12:43:33;92652.72;;;18.89;46.85
64402;BME280;50724;42.376;23.768;2023-04-24T12:46:34;92646.81;;;18.46;47.33
64402;BME280;50724;42.376;23.768;2023-04-24T12:49:34;92644.97;;;18.46;48.28
64402;BME280;50724;42.376;23.768;2023-04-24T12:52:35;92637.28;;;18.38;49.03
64402;BME280;50724;42.376;23.768;2023-04-24T12:55:36;92642.53;;;18.45;49.11
64402;BME280;50724;42.376;23.768;2023-04-24T12:58:37;92642.38;;;18.58;47.91
64402;BME280;50724;42.376;23.768;2023-04-24T13:01:38;92649.56;;;18.81;47.39
64402;BME280;50724;42.376;23.768;2023-04-24T13:04:38;92651.38;;;18.69;47.43
64402;BME280;50724;42.376;23.768;2023-04-24T13:07:39;92662.59;;;18.34;48.13
64402;BME280;50724;42.376;23.768;2023-04-24T13:10:40;92662.16;;;18.56;45.65
64402;BME280;50724;42.376;23.768;2023-04-24T13:13:41;92667.47;;;18.37;46.11
64402;BME280;50724;42.376;23.768;2023-04-24T13:16:41;92654.56;;;17.93;49.86
64402;BME280;50724;42.376;23.768;2023-04-24T13:19:43;92661.25;;;18.14;52.22
64402;BME280;50724;42.376;23.768;2023-04-24T13:22:44;92669.91;;;17.66;53.05
64402;BME280;50724;42.376;23.768;2023-04-24T13:25:44;92650.66;;;17.77;54.25
64402;BME280;50724;42.376;23.768;2023-04-24T13:28:57;92649.25;;;17.57;51.29
64402;BME280;50724;42.376;23.768;2023-04-24T13:31:58;92648.56;;;16.94;53.86
64402;BME280;50724;42.376;23.768;2023-04-24T13:34:58;92642.28;;;16.64;54.52
64402;BME280;50724;42.376;23.768;2023-04-24T13:37:59;92634.00;;;16.85;54.31
64402;BME280;50724;42.376;23.768;2023-04-24T13:41:01;92625.34;;;17.45;53.61
64402;BME280;50724;42.376;23.768;2023-04-24T13:44:03;92620.28;;;18.16;52.62
64402;BME280;50724;42.376;23.768;2023-04-24T13:47:04;92625.22;;;18.61;50.65
64402;BME280;50724;42.376;23.768;2023-04-24T13:50:09;92628.41;;;19.15;49.58
64402;BME280;50724;42.376;23.768;2023-04-24T13:53:09;92630.00;;;18.93;50.52
64402;BME280;50724;42.376;23.768;2023-04-24T13:56:10;92627.84;;;18.13;55.71
64402;BME280;50724;42.376;23.768;2023-04-24T13:59:12;92613.34;;;17.67;56.93
64402;BME280;50724;42.376;23.768;2023-04-24T14:02:13;92616.06;;;17.36;55.35
64402;BME280;50724;42.376;23.768;2023-04-24T14:05:13;92604.22;;;17.81;55.99
64402;BME280;50724;42.376;23.768;2023-04-24T14:08:15;92609.88;;;18.51;53.61
64402;BME280;50724;42.376;23.768;2023-04-24T14:11:17;92604.16;;;18.66;52.08
64402;BME280;50724;42.376;23.768;2023-04-24T14:14:18;92608.91;;;18.75;52.80
64402;BME280;50724;42.376;23.768;2023-04-24T14:17:18;92607.00;;;19.05;52.45
64402;BME280;50724;42.376;23.768;2023-04-24T14:20:19;92607.56;;;19.07;53.93
64402;BME280;50724;42.376;23.768;2023-04-24T14:23:20;92608.78;;;17.93;56.75
64402;BME280;50724;42.376;23.768;2023-04-24T14:26:20;92592.34;;;17.30;58.85
64402;BME280;50724;42.376;23.768;2023-04-24T14:29:21;92577.50;;;17.10;60.06
64402;BME280;50724;42.376;23.768;2023-04-24T14:32:21;92570.25;;;17.42;59.80
64402;BME280;50724;42.376;23.768;2023-04-24T14:35:22;92578.28;;;18.20;56.95
64402;BME280;50724;42.376;23.768;2023-04-24T14:38:22;92582.16;;;18.65;55.25
64402;BME280;50724;42.376;23.768;2023-04-24T14:41:22;92591.72;;;18.66;55.06
64402;BME280;50724;42.376;23.768;2023-04-24T14:44:23;92591.25;;;18.81;54.01
64402;BME280;50724;42.376;23.768;2023-04-24T14:47:24;92589.50;;;18.33;56.08
64402;BME280;50724;42.376;23.768;2023-04-24T14:50:24;92577.50;;;17.47;58.13
64402;BME280;50724;42.376;23.768;2023-04-24T14:53:28;92572.69;;;17.01;59.32
64402;BME280;50724;42.376;23.768;2023-04-24T14:56:28;92576.25;;;17.49;58.20
64402;BME280;50724;42.376;23.768;2023-04-24T14:59:29;92575.63;;;18.20;55.57
64402;BME280;50724;42.376;23.768;2023-04-24T15:02:32;92567.81;;;19.31;51.92
64402;BME280;50724;42.376;23.768;2023-04-24T15:05:32;92572.13;;;20.34;50.18
64402;BME280;50724;42.376;23.768;2023-04-24T15:08:33;92572.41;;;20.66;47.91
64402;BME280;50724;42.376;23.768;2023-04-24T15:11:33;92566.81;;;21.46;45.95
64402;BME280;50724;42.376;23.768;2023-04-24T15:14:34;92565.03;;;21.51;45.60
64402;BME280;50724;42.376;23.768;2023-04-24T15:17:34;92570.63;;;22.31;43.61
64402;BME280;50724;42.376;23.768;2023-04-24T15:20:34;92566.66;;;21.74;44.33
64402;BME280;50724;42.376;23.768;2023-04-24T15:23:35;92565.03;;;21.01;45.80
64402;BME280;50724;42.376;23.768;2023-04-24T15:26:36;92569.25;;;20.52;47.04
64402;BME280;50724;42.376;23.768;2023-04-24T15:29:37;92564.41;;;20.21;47.57
64402;BME280;50724;42.376;23.768;2023-04-24T15:32:38;92550.03;;;19.66;49.81
64402;BME280;50724;42.376;23.768;2023-04-24T15:35:39;92553.91;;;18.29;53.21
64402;BME280;50724;42.376;23.768;2023-04-24T15:38:40;92562.78;;;17.57;56.25
64402;BME280;50724;42.376;23.768;2023-04-24T15:41:41;92560.31;;;17.01;57.28
64402;BME280;50724;42.376;23.768;2023-04-24T15:44:41;92557.25;;;16.80;58.93
64402;BME280;50724;42.376;23.768;2023-04-24T15:47:44;92556.38;;;16.61;59.03
64402;BME280;50724;42.376;23.768;2023-04-24T15:50:44;92547.56;;;16.74;58.52
64402;BME280;50724;42.376;23.768;2023-04-24T15:53:45;92549.97;;;16.44;58.40